Latest Weather Observations for Tamworth Airport

IDN60801

Issued at 6:02 am EDT Sunday 21 October 2018 (issued every 10 minutes, with the page automatically refreshed every 10 minutes)

About weather observations | Map of weather stations | Latest weather observations for NSW | Other Formats
Station Details ID: 055325 Name: TAMWORTH AIRPORT AWS Lat: -31.07 Lon: 150.84 Height: 394.9 m
Data from the previous 72 hours. | See also: Recent months at Tamworth Airport
Date/Time
EDT
Temp
°C
App
Temp
°C
Dew
Point
°C
Rel
Hum
%
Delta-T
°C
Wind Press
QNH
hPa
Press
MSL
hPa
Rain since
9am
mm
Dir  Spd
km/h
Gust
km/h
Spd
kts
Gust
kts
21/06:00am 16.1 16.3 14.3 89 1.0 NNW 6 7 3 4 1015.1 1014.1 11.2
21/05:30am 16.2 17.6 14.4 89 1.0 CALM 0 0 0 0 1014.8 1013.8 11.2
21/05:00am 15.7 16.9 13.7 88 1.1 CALM 0 0 0 0 1014.3 1013.2 11.2
21/04:30am 15.8 15.9 13.8 88 1.1 WNW 6 9 3 5 1014.3 1013.2 11.2
21/04:00am 16.2 16.1 13.9 86 1.3 SE 7 9 4 5 1013.9 1012.8 11.2
21/03:30am 16.6 16.2 14.2 86 1.4 SSE 9 15 5 8 1013.7 1012.6 11.2
21/03:00am 16.9 15.5 14.5 86 1.4 SE 15 20 8 11 1013.8 1012.7 11.2
21/02:30am 16.8 16.6 14.8 88 1.2 S 9 11 5 6 1014.2 1013.1 11.2
21/02:00am 16.9 16.7 14.7 87 1.3 SSW 9 11 5 6 1014.8 1013.8 11.2
21/01:30am 17.4 17.0 15.2 87 1.3 ESE 11 13 6 7 1015.1 1014.1 11.2
21/01:00am 17.3 16.4 14.9 86 1.4 SE 13 15 7 8 1016.0 1014.9 11.2
21/12:30am 17.6 16.8 15.0 85 1.5 ESE 13 15 7 8 1016.3 1015.2 11.2
21/12:00am 17.3 16.0 14.9 86 1.4 SSE 15 19 8 10 1016.2 1015.1 11.2
 
Date/Time
EDT
Temp
°C
App
Temp
°C
Dew
Point
°C
Rel
Hum
%
Delta-T
°C
Wind Press
QNH
hPa
Press
MSL
hPa
Rain since
9am
mm
Dir  Spd
km/h
Gust
km/h
Spd
kts
Gust
kts
20/11:30pm 17.5 16.7 15.0 85 1.5 S 13 17 7 9 1016.9 1015.9 11.2
20/11:00pm 17.9 18.5 14.2 79 2.2 S 4 7 2 4 1016.5 1015.4 11.2
20/10:30pm 17.4 16.8 14.7 84 1.6 WSW 11 17 6 9 1016.4 1015.3 11.2
20/10:00pm 17.8 16.3 15.2 85 1.5 ENE 17 24 9 13 1015.6 1014.5 11.0
20/09:30pm 17.7 17.3 15.1 85 1.5 E 11 20 6 11 1016.5 1015.4 11.0
20/09:00pm 17.5 17.2 15.5 88 1.2 NE 11 15 6 8 1017.2 1016.2 11.0
20/08:44pm 17.5 17.2 15.5 88 1.2 NNE 11 15 6 8 1017.5 1016.5 10.8
20/08:30pm 17.4 16.7 15.4 88 1.2 NNE 13 17 7 9 1017.3 1016.3 10.2
20/08:27pm 17.4 16.7 15.4 88 1.2 NNE 13 20 7 11 1017.3 1016.3 10.0
20/08:00pm 17.5 18.4 15.1 86 1.4 W 4 9 2 5 1017.0 1016.0 8.2
20/07:43pm 17.2 15.5 14.8 86 1.4 W 17 22 9 12 1017.0 1016.0 7.6
20/07:30pm 17.4 14.8 15.0 86 1.4 W 22 28 12 15 1016.9 1015.9 6.8
20/07:00pm 17.4 12.3 14.9 85 1.5 WSW 35 46 19 25 1015.7 1014.6 3.8
20/06:30pm 17.7 10.6 14.0 79 2.2 W 44 65 24 35 1014.8 1013.8 0.8
20/06:29pm 17.9 10.4 14.0 78 2.3 W 46 69 25 37 1014.8 1013.8 0.4
20/06:14pm 22.9 19.1 11.0 47 6.7 NW 22 85 12 46 1012.9 1011.8 0.0
20/06:00pm 25.9 25.4 13.7 47 7.3 NNW 9 11 5 6 1011.8 1010.7 0.0
20/05:30pm 26.5 25.1 13.3 44 7.9 NNW 13 17 7 9 1011.7 1010.6 0.0
20/05:00pm 27.1 25.1 12.7 41 8.5 NNW 15 20 8 11 1011.5 1010.4 0.0
20/04:30pm 27.4 25.0 12.6 40 8.8 NW 17 22 9 12 1011.7 1010.6 0.0
20/04:00pm 28.2 25.8 12.5 37 9.3 NNW 17 24 9 13 1011.5 1010.4 0.0
20/03:30pm 28.7 26.3 12.6 37 9.6 NW 17 26 9 14 1011.5 1010.4 0.0
20/03:00pm 28.2 25.3 12.9 38 9.1 NNW 20 28 11 15 1012.3 1011.3 0.0
20/02:30pm 29.1 26.5 13.7 38 9.4 NNW 20 30 11 16 1013.2 1012.1 0.0
20/02:00pm 28.5 25.8 14.7 43 8.5 NNW 22 28 12 15 1014.2 1013.1 0.0
20/01:30pm 28.1 25.6 14.0 42 8.6 NNW 20 26 11 14 1014.8 1013.8 0.0
20/01:00pm 28.2 25.6 13.7 41 8.8 NW 20 28 11 15 1015.2 1014.2 0.0
20/12:30pm 26.7 24.3 13.8 45 7.8 NW 19 26 10 14 1015.5 1014.4 0.0
20/12:00pm 26.9 24.8 14.6 46 7.5 NW 19 24 10 13 1016.0 1014.9 0.0
20/11:30am 26.3 24.9 14.4 48 7.2 NNW 15 26 8 14 1016.5 1015.4 0.0
20/11:00am 24.4 21.5 13.9 52 6.3 NNW 22 32 12 17 1016.7 1015.7 0.0
20/10:30am 24.1 21.1 14.8 56 5.6 NNW 24 32 13 17 1017.1 1016.1 0.0
20/10:00am 25.0 23.4 15.0 53 6.1 N 17 26 9 14 1017.3 1016.3 0.0
20/09:30am 23.5 23.4 15.0 59 5.2 N 9 15 5 8 1017.7 1016.7 0.0
20/09:00am 22.4 22.6 14.3 60 4.8 NNE 6 13 3 7 1017.7 1016.7 0.0
20/08:30am 21.6 21.6 14.3 63 4.3 ESE 7 9 4 5 1017.6 1016.6 0.0
20/08:00am 19.7 19.2 14.9 74 2.9 SSE 11 13 6 7 1017.7 1016.7 0.0
20/07:30am 19.0 19.4 15.3 79 2.2 ESE 7 11 4 6 1017.5 1016.5 0.0
20/07:00am 15.5 15.5 13.7 89 1.0 S 6 9 3 5 1017.5 1016.5 0.0
20/06:30am 14.2 14.6 12.4 89 1.0 S 2 7 1 4 1017.2 1016.2 0.0
20/06:00am 13.6 12.8 11.1 85 1.3 SSW 6 9 3 5 1016.8 1015.8 0.0
20/05:30am 14.7 14.4 12.7 88 1.1 SE 6 9 3 5 1016.7 1015.7 0.0
20/05:00am 13.9 14.5 11.8 87 1.1 CALM 0 0 0 0 1016.6 1015.5 0.0
20/04:30am 15.1 14.7 12.4 84 1.5 E 6 9 3 5 1016.4 1015.3 0.0
20/04:00am 15.4 14.7 13.1 86 1.3 SSW 9 11 5 6 1016.5 1015.4 0.0
20/03:30am 14.4 13.6 11.7 84 1.5 WSW 7 9 4 5 1016.5 1015.4 0.0
20/03:00am 16.1 14.6 13.0 82 1.8 SE 13 13 7 7 1016.4 1015.3 0.0
20/02:30am 16.9 15.2 13.6 81 1.9 S 15 17 8 9 1016.5 1015.4 0.0
20/02:00am 16.2 14.7 13.1 82 1.8 SSW 13 15 7 8 1016.6 1015.5 0.0
20/01:30am 16.1 14.9 12.7 80 1.9 S 11 15 6 8 1016.8 1015.8 0.0
20/01:00am 16.7 15.4 13.6 82 1.8 SSE 13 15 7 8 1017.1 1016.1 0.0
20/12:30am 16.5 15.6 13.8 84 1.6 SSW 11 13 6 7 1017.4 1016.4 0.0
20/12:00am 17.7 17.6 14.0 79 2.1 SE 7 9 4 5 1017.5 1016.5 0.0
 
Date/Time
EDT
Temp
°C
App
Temp
°C
Dew
Point
°C
Rel
Hum
%
Delta-T
°C
Wind Press
QNH
hPa
Press
MSL
hPa
Rain since
9am
mm
Dir  Spd
km/h
Gust
km/h
Spd
kts
Gust
kts
19/11:30pm 17.5 17.4 13.8 79 2.1 ESE 7 9 4 5 1017.7 1016.7 0.0
19/11:00pm 18.4 19.7 14.1 76 2.5 CALM 0 0 0 0 1017.7 1016.7 0.0
19/10:30pm 20.2 21.8 14.8 71 3.2 CALM 0 0 0 0 1017.6 1016.6 0.0
19/10:00pm 19.7 21.1 14.5 72 3.1 CALM 0 0 0 0 1017.6 1016.6 0.0
19/09:30pm 20.7 22.1 14.4 67 3.7 CALM 0 0 0 0 1017.5 1016.5 0.0
19/09:00pm 20.9 22.1 13.8 64 4.2 CALM 0 6 0 3 1017.4 1016.4 0.0
19/08:30pm 21.5 21.4 13.9 62 4.5 N 7 7 4 4 1017.1 1016.1 0.0
19/08:00pm 22.2 22.3 13.8 59 5.0 N 6 9 3 5 1016.8 1015.8 0.0
19/07:30pm 22.8 22.0 14.1 58 5.2 N 11 15 6 8 1016.4 1015.3 0.0
19/07:00pm 23.6 22.8 14.0 55 5.7 N 11 13 6 7 1015.9 1014.8 0.0
19/06:30pm 25.1 24.0 14.3 51 6.5 N 13 17 7 9 1015.6 1014.5 0.0
19/06:00pm 26.1 24.8 12.5 42 8.0 NNW 11 15 6 8 1015.6 1014.5 0.0
19/05:30pm 26.4 25.0 13.5 45 7.7 NNW 13 19 7 10 1015.8 1014.7 0.0
19/05:00pm 26.2 26.0 14.6 48 7.1 NW 9 15 5 8 1015.9 1014.8 0.0
19/04:30pm 27.2 27.2 15.2 47 7.4 WNW 9 17 5 9 1016.1 1015.0 0.0
19/04:00pm 25.5 26.1 14.3 50 6.8 W 4 9 2 5 1016.3 1015.2 0.0
19/03:30pm 26.6 26.2 14.0 46 7.6 W 9 15 5 8 1016.5 1015.4 0.0
19/03:00pm 26.7 26.4 14.5 47 7.4 WNW 9 17 5 9 1016.8 1015.8 0.0
19/02:30pm 26.2 25.0 14.0 47 7.4 SW 13 19 7 10 1017.2 1016.2 0.0
19/02:00pm 26.3 25.2 14.4 48 7.2 W 13 19 7 10 1017.6 1016.6 0.0
19/01:30pm 25.3 24.4 13.8 49 6.9 NNW 11 20 6 11 1017.9 1016.9 0.0
19/01:00pm 25.3 24.9 14.1 50 6.7 NW 9 13 5 7 1018.5 1017.4 0.0
19/12:30pm 25.0 24.5 15.0 53 6.1 NNW 11 17 6 9 1019.0 1018.0 0.0
19/12:00pm 24.4 23.5 14.8 55 5.8 NW 13 20 7 11 1019.3 1018.3 0.0
19/11:30am 24.3 24.1 15.8 59 5.2 NW 11 20 6 11 1019.7 1018.7 0.0
19/11:00am 23.9 23.3 16.7 64 4.5 NW 15 20 8 11 1020.1 1019.1 0.0
19/10:30am 23.0 20.8 14.3 58 5.2 NNW 19 28 10 15 1020.5 1019.5 0.0
19/10:00am 22.6 21.4 15.0 62 4.6 NNW 15 28 8 15 1020.8 1019.7 0.0
19/09:30am 21.4 21.6 14.6 65 4.1 N 7 11 4 6 1020.9 1019.8 0.0
19/09:00am 20.6 21.5 14.0 66 3.9 ENE 2 7 1 4 1021.0 1019.9 0.0
19/08:30am 19.9 20.2 15.1 74 2.9 ENE 7 11 4 6 1020.5 1019.5 0.0
19/08:00am 19.1 20.1 15.4 79 2.2 ESE 4 9 2 5 1020.6 1019.6 0.0
19/07:30am 16.3 17.7 14.3 88 1.2 CALM 0 0 0 0 1020.6 1019.6 0.0
19/07:00am 15.7 15.5 13.7 88 1.1 ESE 7 11 4 6 1020.1 1019.1 0.0
19/06:30am 15.3 16.3 13.3 88 1.1 CALM 0 0 0 0 1019.7 1018.7 0.0
19/06:00am 15.4 16.4 13.2 87 1.2 CALM 0 0 0 0 1019.5 1018.5 0.0
19/05:30am 15.7 16.9 13.7 88 1.1 CALM 0 6 0 3 1019.1 1018.1 0.0
19/05:00am 15.7 15.5 13.5 87 1.3 S 7 9 4 5 1018.6 1017.5 0.0
19/04:30am 15.9 15.4 13.9 88 1.2 WSW 9 11 5 6 1018.5 1017.4 0.0
19/04:00am 15.7 15.1 13.5 87 1.3 WSW 9 11 5 6 1018.4 1017.3 0.0
19/03:30am 16.0 16.0 13.5 85 1.4 NW 6 7 3 4 1018.3 1017.2 0.0
19/03:00am 16.9 16.9 13.6 81 1.9 ENE 6 11 3 6 1018.0 1017.0 0.0
19/02:30am 17.3 16.1 14.0 81 1.9 ESE 13 17 7 9 1018.0 1017.0 0.0
19/02:00am 17.4 17.2 13.7 79 2.1 SE 7 11 4 6 1018.7 1017.6 0.0
19/01:30am 17.8 17.4 14.1 79 2.2 S 9 13 5 7 1019.1 1018.1 0.0
19/01:00am 17.9 14.9 13.8 77 2.4 SSW 22 30 12 16 1019.4 1018.4 0.0
19/12:30am 18.6 17.2 14.5 77 2.4 W 15 28 8 15 1020.1 1019.1 0.0
19/12:00am 19.0 18.7 14.5 75 2.6 NNE 9 13 5 7 1019.5 1018.5 0.0
 
Date/Time
EDT
Temp
°C
App
Temp
°C
Dew
Point
°C
Rel
Hum
%
Delta-T
°C
Wind Press
QNH
hPa
Press
MSL
hPa
Rain since
9am
mm
Dir  Spd
km/h
Gust
km/h
Spd
kts
Gust
kts
18/11:30pm 19.4 18.7 14.4 73 3.0 N 11 17 6 9 1019.8 1018.8 0.0
18/11:00pm 19.3 19.0 14.3 73 2.9 NE 9 13 5 7 1019.4 1018.4 0.0
18/10:30pm 19.9 18.7 14.0 69 3.5 NNW 13 20 7 11 1019.8 1018.8 0.0
18/10:00pm 19.8 18.9 13.7 68 3.6 NNE 11 17 6 9 1018.9 1017.9 0.0
18/09:30pm 20.9 20.3 13.4 62 4.4 N 9 13 5 7 1018.7 1017.6 0.0
18/09:00pm 22.4 20.7 14.8 62 4.6 ESE 17 20 9 11 1018.4 1017.3 0.0
18/08:30pm 20.3 19.0 13.7 66 3.9 SSE 13 15 7 8 1017.9 1016.9 0.0
18/08:00pm 20.7 19.5 13.9 65 4.0 SSE 13 17 7 9 1017.4 1016.4 0.0
18/07:30pm 21.4 19.3 13.6 61 4.6 S 17 20 9 11 1016.6 1015.5 0.0
18/07:00pm 24.1 24.6 12.7 49 6.7 N 2 7 1 4 1016.5 1015.4 0.0
18/06:30pm 25.1 24.6 12.7 46 7.3 N 7 9 4 5 1016.0 1014.9 0.0
18/06:00pm 26.3 25.3 12.4 42 8.2 N 9 13 5 7 1015.5 1014.4 0.0
18/05:30pm 26.2 24.7 13.0 44 7.8 NNE 13 17 7 9 1015.3 1014.3 0.0
18/05:00pm 25.9 25.0 13.7 47 7.3 NE 11 17 6 9 1015.1 1014.1 0.0
18/04:30pm 25.5 23.9 14.0 49 6.9 NNE 15 22 8 12 1015.2 1014.2 0.0
18/04:00pm 25.4 24.4 15.7 55 6.0 NE 15 24 8 13 1015.7 1014.6 0.0
18/03:30pm 24.4 23.6 13.0 49 6.7 NNE 9 17 5 9 1016.0 1014.9 0.0
18/03:00pm 25.8 25.1 13.3 46 7.4 NNW 9 19 5 10 1016.3 1015.2 0.0
18/02:30pm 26.0 24.2 13.2 45 7.6 WNW 15 20 8 11 1016.5 1015.4 0.0
18/02:00pm 25.0 23.9 14.2 51 6.5 NE 13 20 7 11 1016.9 1015.9 0.0
18/01:30pm 26.0 24.7 15.7 53 6.4 WNW 17 28 9 15 1017.4 1016.4 0.0
18/01:00pm 24.2 23.8 14.0 53 6.1 NW 9 15 5 8 1017.7 1016.7 0.0
18/12:30pm 24.1 23.1 14.5 55 5.8 NW 13 19 7 10 1018.0 1017.0 0.0
18/12:00pm 24.0 22.4 15.0 57 5.5 WNW 17 20 9 11 1018.3 1017.2 0.0
18/11:30am 23.9 22.9 15.7 60 5.0 NNW 15 20 8 11 1018.6 1017.5 0.0
18/11:00am 23.2 21.8 13.4 54 5.8 NNE 13 19 7 10 1018.8 1017.7 0.0
18/10:30am 22.9 22.6 14.5 59 5.0 NNE 9 19 5 10 1019.0 1018.0 0.0
18/10:00am 21.9 21.7 14.8 64 4.3 NE 9 19 5 10 1019.2 1018.2 0.0
18/09:30am 21.5 23.2 15.1 67 3.9 CALM 0 6 0 3 1019.3 1018.3 0.0
18/09:00am 20.0 20.2 14.1 69 3.5 SSW 6 9 3 5 1019.1 1018.1 18.8
18/08:30am 19.8 20.2 15.2 75 2.8 SE 7 11 4 6 1018.7 1017.6 18.8
18/08:00am 18.4 19.0 15.8 85 1.6 SE 7 9 4 5 1018.6 1017.5 18.8
18/07:30am 16.1 16.4 14.6 91 0.9 SW 6 7 3 4 1018.5 1017.4 18.8
18/07:00am 14.8 15.7 13.0 89 1.0 CALM 0 0 0 0 1018.0 1017.0 18.8
18/06:30am 15.0 15.6 13.0 88 1.1 S 2 7 1 4 1017.4 1016.4 18.8

Other Formats:

Comma delimited format used in spreadsheet applications
http://www.bom.gov.au/fwo/IDN60801/IDN60801.95762.axf

JavaScript Object Notation format (JSON) in row-major order
http://www.bom.gov.au/fwo/IDN60801/IDN60801.95762.json